createdAt,value
2018-12-04T00:01:05.262Z,998.26
2018-12-04T00:02:07.251Z,998.31
2018-12-04T00:03:05.183Z,998.28
2018-12-04T00:04:11.963Z,998.26
2018-12-04T00:05:05.154Z,998.32
2018-12-04T00:06:05.117Z,998.32
2018-12-04T00:07:05.055Z,998.33
2018-12-04T00:08:06.038Z,998.38
2018-12-04T00:09:05.025Z,998.36
2018-12-04T00:10:05.059Z,998.40
2018-12-04T00:11:54.164Z,998.44
2018-12-04T00:12:50.735Z,998.50
2018-12-04T00:13:51.773Z,998.56
2018-12-04T00:14:50.713Z,998.60
2018-12-04T00:15:52.672Z,998.59
2018-12-04T00:16:50.651Z,998.63
2018-12-04T00:17:51.666Z,998.60
2018-12-04T00:19:45.654Z,998.71
2018-12-04T00:21:02.455Z,998.80
2018-12-04T00:21:45.540Z,998.83
2018-12-04T00:22:54.520Z,998.83
2018-12-04T00:23:45.521Z,998.88
2018-12-04T00:24:46.507Z,998.92
2018-12-04T00:25:33.913Z,998.94
2018-12-04T00:27:26.507Z,998.92
2018-12-04T00:28:26.480Z,998.99
2018-12-04T00:29:26.442Z,998.99
2018-12-04T00:30:26.460Z,999.02
2018-12-04T00:31:26.401Z,999.05
2018-12-04T00:32:26.392Z,999.07
2018-12-04T00:33:26.343Z,999.10
2018-12-04T00:34:26.386Z,999.17
2018-12-04T00:36:13.976Z,999.19
2018-12-04T00:37:14.010Z,999.22
2018-12-04T00:38:13.892Z,999.25
2018-12-04T00:39:14.938Z,999.27
2018-12-04T00:40:13.878Z,999.26
2018-12-04T00:41:20.484Z,999.26
2018-12-04T00:42:13.807Z,999.30
2018-12-04T00:43:06.173Z,999.37
2018-12-04T00:44:05.960Z,999.35
2018-12-04T00:45:05.924Z,999.32
2018-12-04T00:46:06.047Z,999.37
2018-12-04T00:47:05.836Z,999.36
2018-12-04T00:48:05.905Z,999.41
2018-12-04T00:49:05.792Z,999.47
2018-12-04T00:50:05.818Z,999.55
2018-12-04T00:51:05.723Z,999.54
2018-12-04T00:53:03.224Z,999.64
2018-12-04T00:53:59.723Z,999.67
2018-12-04T00:54:58.067Z,999.76
2018-12-04T00:55:59.749Z,999.82
2018-12-04T00:56:59.734Z,999.82
2018-12-04T00:57:57.942Z,999.87
2018-12-04T00:58:57.937Z,999.89
2018-12-04T00:59:57.930Z,999.97
2018-12-04T01:01:02.815Z,999.94
2018-12-04T01:02:02.242Z,999.96
2018-12-04T01:03:02.243Z,999.98
2018-12-04T01:04:02.191Z,999.99
2018-12-04T01:05:02.162Z,1000.02
2018-12-04T01:06:02.131Z,1000.04
2018-12-04T01:07:02.111Z,1000.07
2018-12-04T01:09:02.039Z,1000.16
2018-12-04T01:10:49.368Z,1000.19
2018-12-04T01:11:49.304Z,1000.25
2018-12-04T01:12:51.307Z,1000.27
2018-12-04T01:13:49.295Z,1000.32
2018-12-04T01:14:49.220Z,1000.34
2018-12-04T01:15:49.297Z,1000.39
2018-12-04T01:16:49.162Z,1000.44
2018-12-04T01:17:56.052Z,1000.47
2018-12-04T01:18:49.107Z,1000.50
2018-12-04T01:19:49.105Z,1000.52
2018-12-04T01:20:49.050Z,1000.58
2018-12-04T01:21:49.055Z,1000.63
2018-12-04T01:23:35.451Z,1000.72
2018-12-04T01:24:35.330Z,1000.77
2018-12-04T01:25:35.320Z,1000.78
2018-12-04T01:26:35.293Z,1000.89
2018-12-04T01:27:36.402Z,1000.92
2018-12-04T01:28:35.239Z,1000.95
2018-12-04T01:29:35.317Z,1001.00
2018-12-04T01:30:35.146Z,1001.03
2018-12-04T01:31:35.148Z,1001.01
2018-12-04T01:32:35.112Z,1001.05
2018-12-04T01:33:36.185Z,1001.10
2018-12-04T01:35:46.778Z,1001.20
2018-12-04T01:36:46.838Z,1001.18
2018-12-04T01:37:46.722Z,1001.21
2018-12-04T01:38:46.690Z,1001.28
2018-12-04T01:39:46.669Z,1001.29
2018-12-04T01:40:46.599Z,1001.28
2018-12-04T01:41:47.600Z,1001.30
2018-12-04T01:42:46.582Z,1001.24
2018-12-04T01:43:46.614Z,1001.28
2018-12-04T01:44:34.111Z,1001.34
2018-12-04T01:45:34.143Z,1001.34
2018-12-04T01:46:34.033Z,1001.38
2018-12-04T01:47:34.100Z,1001.39
2018-12-04T01:48:34.093Z,1001.43
2018-12-04T01:49:34.111Z,1001.49
2018-12-04T01:50:33.920Z,1001.52
2018-12-04T01:52:33.335Z,1001.56
2018-12-04T01:53:33.167Z,1001.64
2018-12-04T01:54:34.182Z,1001.64
2018-12-04T01:55:33.115Z,1001.68
2018-12-04T01:56:33.167Z,1001.70
2018-12-04T01:57:33.061Z,1001.69
2018-12-04T01:58:33.071Z,1001.69
2018-12-04T01:59:33.001Z,1001.70
2018-12-04T02:00:34.003Z,1001.71
2018-12-04T02:01:32.947Z,1001.66
2018-12-04T02:02:33.015Z,1001.71
2018-12-04T02:03:32.910Z,1001.70
2018-12-04T02:04:32.909Z,1001.77
2018-12-04T02:05:32.849Z,1001.79
2018-12-04T02:07:47.027Z,1001.87
2018-12-04T02:08:46.975Z,1001.89
2018-12-04T02:09:46.966Z,1001.94
2018-12-04T02:10:47.994Z,1001.93
2018-12-04T02:11:46.888Z,1001.95
2018-12-04T02:12:46.895Z,1001.96
2018-12-04T02:13:46.857Z,1002.00
2018-12-04T02:14:46.896Z,1001.99
2018-12-04T02:15:46.789Z,1002.00
2018-12-04T02:16:52.165Z,1002.08
2018-12-04T02:17:52.153Z,1002.10
2018-12-04T02:18:52.043Z,1002.09
2018-12-04T02:19:52.056Z,1002.12
2018-12-04T02:20:51.969Z,1002.08
2018-12-04T02:21:51.958Z,1002.18
2018-12-04T02:22:51.914Z,1002.21
2018-12-04T02:23:52.045Z,1002.23
2018-12-04T02:25:38.398Z,1002.26
2018-12-04T02:26:38.321Z,1002.31
2018-12-04T02:27:38.294Z,1002.29
2018-12-04T02:28:38.311Z,1002.27
2018-12-04T02:29:38.213Z,1002.38
2018-12-04T02:30:38.221Z,1002.36
2018-12-04T02:32:30.152Z,1002.44
2018-12-04T02:34:25.716Z,1002.43
2018-12-04T02:35:27.683Z,1002.48
2018-12-04T02:36:25.637Z,1002.53
2018-12-04T02:37:25.666Z,1002.57
2018-12-04T02:38:25.609Z,1002.62
2018-12-04T02:39:25.561Z,1002.65
2018-12-04T02:40:25.502Z,1002.66
2018-12-04T02:44:35.595Z,1002.83
2018-12-04T02:45:35.634Z,1002.85
2018-12-04T02:46:35.514Z,1002.84
2018-12-04T02:47:35.540Z,1002.85
2018-12-04T02:48:35.451Z,1002.86
2018-12-04T02:49:35.419Z,1002.86
2018-12-04T02:50:44.376Z,1002.89
2018-12-04T02:51:35.370Z,1002.87
2018-12-04T02:53:21.925Z,1002.92
2018-12-04T02:54:22.855Z,1002.95
2018-12-04T02:55:21.795Z,1002.97
2018-12-04T02:56:21.742Z,1002.95
2018-12-04T02:57:21.643Z,1002.98
2018-12-04T02:59:10.489Z,1003.00
2018-12-04T03:00:10.461Z,1003.08
2018-12-04T03:01:10.315Z,1003.03
2018-12-04T03:02:10.316Z,1003.08
2018-12-04T03:03:10.369Z,1003.09
2018-12-04T03:04:10.236Z,1003.10
2018-12-04T03:05:11.297Z,1003.14
2018-12-04T03:06:10.252Z,1003.17
2018-12-04T03:07:10.221Z,1003.20
2018-12-04T03:08:10.136Z,1003.21
2018-12-04T03:09:10.212Z,1003.15
2018-12-04T03:10:10.052Z,1003.20
2018-12-04T03:12:25.643Z,1003.22
2018-12-04T03:13:27.660Z,1003.24
2018-12-04T03:14:25.559Z,1003.20
2018-12-04T03:15:25.675Z,1003.25
2018-12-04T03:16:25.501Z,1003.30
2018-12-04T03:17:32.496Z,1003.27
2018-12-04T03:18:25.434Z,1003.26
2018-12-04T03:19:25.734Z,1003.28
2018-12-04T03:20:25.512Z,1003.29
2018-12-04T03:21:25.456Z,1003.30
2018-12-04T03:23:14.651Z,1003.35
2018-12-04T03:24:14.778Z,1003.37
2018-12-04T03:25:14.596Z,1003.38
2018-12-04T03:26:14.597Z,1003.44
2018-12-04T03:27:14.512Z,1003.45
2018-12-04T03:28:14.560Z,1003.45
2018-12-04T03:29:14.452Z,1003.51
2018-12-04T03:30:14.561Z,1003.57
2018-12-04T03:31:14.403Z,1003.57
2018-12-04T03:32:14.438Z,1003.51
2018-12-04T03:33:14.334Z,1003.54
2018-12-04T03:35:22.856Z,1003.59
2018-12-04T03:36:22.798Z,1003.60
2018-12-04T03:37:22.763Z,1003.60
2018-12-04T03:38:22.879Z,1003.56
2018-12-04T03:39:22.684Z,1003.65
2018-12-04T03:40:38.459Z,1003.65
2018-12-04T03:41:22.634Z,1003.68
2018-12-04T03:42:43.782Z,1003.71
2018-12-04T03:43:43.796Z,1003.69
2018-12-04T03:44:43.674Z,1003.75
2018-12-04T03:45:43.686Z,1003.73
2018-12-04T03:46:43.685Z,1003.74
2018-12-04T03:47:50.480Z,1003.80
2018-12-04T03:48:43.575Z,1003.76
2018-12-04T03:49:43.613Z,1003.79
2018-12-04T03:50:43.517Z,1003.81
2018-12-04T03:52:48.061Z,1003.84
2018-12-04T03:53:48.012Z,1003.87
2018-12-04T03:54:47.973Z,1003.89
2018-12-04T03:55:47.974Z,1003.89
2018-12-04T03:56:47.912Z,1003.92
2018-12-04T03:57:47.943Z,1003.99
2018-12-04T03:58:47.834Z,1003.98
2018-12-04T03:59:47.879Z,1003.94
2018-12-04T04:00:47.801Z,1003.94
2018-12-04T04:02:33.756Z,1003.96
2018-12-04T04:03:34.797Z,1003.92
2018-12-04T04:04:33.656Z,1003.95
2018-12-04T04:05:33.632Z,1003.98
2018-12-04T04:06:33.693Z,1004.02
2018-12-04T04:07:33.574Z,1004.03
2018-12-04T04:09:22.904Z,1004.11
2018-12-04T04:10:22.995Z,1004.10
2018-12-04T04:11:22.833Z,1004.13
2018-12-04T04:12:24.295Z,1004.13
2018-12-04T04:15:12.343Z,1004.17
2018-12-04T04:16:12.346Z,1004.16
2018-12-04T04:16:59.376Z,1004.21
2018-12-04T04:17:59.401Z,1004.26
2018-12-04T04:19:53.800Z,1004.30
2018-12-04T04:20:54.771Z,1004.36
2018-12-04T04:21:53.693Z,1004.35
2018-12-04T04:22:53.760Z,1004.41
2018-12-04T04:23:53.641Z,1004.43
2018-12-04T04:24:53.679Z,1004.42
2018-12-04T04:25:53.589Z,1004.45
2018-12-04T04:26:53.599Z,1004.55
2018-12-04T04:28:02.242Z,1004.58
2018-12-04T04:29:02.094Z,1004.60
2018-12-04T04:29:51.704Z,1004.61
2018-12-04T04:30:50.555Z,1004.59
2018-12-04T04:31:50.629Z,1004.63
2018-12-04T04:32:50.583Z,1004.68
2018-12-04T04:33:50.685Z,1004.64
2018-12-04T04:34:50.670Z,1004.69
2018-12-04T04:35:50.793Z,1004.65
2018-12-04T04:36:50.673Z,1004.66
2018-12-04T04:37:50.401Z,1004.70
2018-12-04T04:38:50.404Z,1004.70
2018-12-04T04:40:41.750Z,1004.73
2018-12-04T04:41:41.683Z,1004.77
2018-12-04T04:43:35.117Z,1004.81
2018-12-04T04:44:35.247Z,1004.86
2018-12-04T04:46:25.371Z,1004.89
2018-12-04T04:47:27.096Z,1004.91
2018-12-04T04:48:26.279Z,1004.94
2018-12-04T04:49:25.261Z,1004.97
2018-12-04T04:50:25.262Z,1004.98
2018-12-04T04:51:25.154Z,1005.02
2018-12-04T04:53:11.053Z,1005.04
2018-12-04T04:54:11.059Z,1005.07
2018-12-04T04:55:11.036Z,1005.04
2018-12-04T04:56:11.006Z,1005.05
2018-12-04T04:57:10.947Z,1005.10
2018-12-04T04:58:10.994Z,1005.09
2018-12-04T04:59:10.924Z,1005.13
2018-12-04T05:00:57.173Z,1005.07
2018-12-04T05:01:52.362Z,1005.11
2018-12-04T05:02:52.318Z,1005.16
2018-12-04T05:03:52.174Z,1005.16
2018-12-04T05:04:39.251Z,1005.19
2018-12-04T05:05:38.144Z,1005.22
2018-12-04T05:06:38.076Z,1005.22
2018-12-04T05:07:38.036Z,1005.23
2018-12-04T05:08:38.104Z,1005.27
2018-12-04T05:09:37.995Z,1005.28
2018-12-04T05:10:40.054Z,1005.27
2018-12-04T05:11:25.925Z,1005.30
2018-12-04T05:12:25.848Z,1005.35
2018-12-04T05:13:25.830Z,1005.37
2018-12-04T05:14:25.797Z,1005.36
2018-12-04T05:15:25.846Z,1005.42
2018-12-04T05:16:11.902Z,1005.45
2018-12-04T05:17:11.761Z,1005.43
2018-12-04T05:18:11.744Z,1005.47
2018-12-04T05:19:11.702Z,1005.50
2018-12-04T05:20:11.725Z,1005.51
2018-12-04T05:21:11.634Z,1005.51
2018-12-04T05:22:11.618Z,1005.59
2018-12-04T05:23:11.567Z,1005.68
2018-12-04T05:24:58.906Z,1005.69
2018-12-04T05:25:57.777Z,1005.68
2018-12-04T05:26:57.756Z,1005.74
2018-12-04T05:27:57.724Z,1005.72
2018-12-04T05:28:57.782Z,1005.76
2018-12-04T05:29:57.770Z,1005.73
2018-12-04T05:31:49.683Z,1005.81
2018-12-04T05:32:50.741Z,1005.84
2018-12-04T05:33:49.621Z,1005.83
2018-12-04T05:34:50.658Z,1005.84
2018-12-04T05:35:49.550Z,1005.86
2018-12-04T05:36:49.533Z,1005.92
2018-12-04T05:37:49.479Z,1005.97
2018-12-04T05:38:49.549Z,1005.99
2018-12-04T05:39:49.461Z,1006.04
2018-12-04T05:41:50.292Z,1006.11
2018-12-04T05:42:50.356Z,1006.08
2018-12-04T05:43:50.185Z,1006.12
2018-12-04T05:44:50.201Z,1006.09
2018-12-04T05:45:50.130Z,1006.16
2018-12-04T05:46:50.114Z,1006.15
2018-12-04T05:47:50.053Z,1006.19
2018-12-04T05:48:50.043Z,1006.16
2018-12-04T05:49:50.009Z,1006.18
2018-12-04T05:50:49.972Z,1006.24
2018-12-04T05:51:49.949Z,1006.18
2018-12-04T05:52:49.921Z,1006.20
2018-12-04T05:53:49.897Z,1006.20
2018-12-04T05:54:49.951Z,1006.22
2018-12-04T05:55:49.828Z,1006.24
2018-12-04T05:56:49.986Z,1006.25
2018-12-04T05:57:50.422Z,1006.27
2018-12-04T05:58:49.816Z,1006.30
2018-12-04T06:01:46.625Z,1006.42
2018-12-04T06:02:46.432Z,1006.47
2018-12-04T06:03:48.065Z,1006.51
2018-12-04T06:04:48.481Z,1006.53
2018-12-04T06:05:46.361Z,1006.54
2018-12-04T06:06:46.402Z,1006.55
2018-12-04T06:07:46.311Z,1006.58
2018-12-04T06:09:37.341Z,1006.57
2018-12-04T06:10:40.174Z,1006.64
2018-12-04T06:12:36.878Z,1006.69
2018-12-04T06:13:27.837Z,1006.69
2018-12-04T06:14:40.843Z,1006.71
2018-12-04T06:15:40.820Z,1006.74
2018-12-04T06:16:41.066Z,1006.78
2018-12-04T06:17:41.885Z,1006.80
2018-12-04T06:18:42.586Z,1006.80
2018-12-04T06:19:42.593Z,1006.86
2018-12-04T06:20:40.935Z,1006.88
2018-12-04T06:21:40.948Z,1006.87
2018-12-04T06:22:40.874Z,1006.92
2018-12-04T06:23:40.835Z,1006.90
2018-12-04T06:24:42.623Z,1006.95
2018-12-04T06:25:42.597Z,1006.98
2018-12-04T06:27:38.916Z,1006.98
2018-12-04T06:28:40.796Z,1007.00
2018-12-04T06:29:38.849Z,1007.04
2018-12-04T06:31:08.249Z,1007.10
2018-12-04T06:32:07.106Z,1007.15
2018-12-04T06:33:21.960Z,1007.14
2018-12-04T06:34:07.039Z,1007.21
2018-12-04T06:35:07.113Z,1007.23
2018-12-04T06:37:31.889Z,1007.29
2018-12-04T06:38:31.839Z,1007.36
2018-12-04T06:39:32.829Z,1007.34
2018-12-04T06:40:31.796Z,1007.39
2018-12-04T06:41:31.833Z,1007.42
2018-12-04T06:42:31.824Z,1007.43
2018-12-04T06:43:31.755Z,1007.42
2018-12-04T06:45:19.081Z,1007.51
2018-12-04T06:46:19.076Z,1007.53
2018-12-04T06:47:19.974Z,1007.56
2018-12-04T06:48:18.944Z,1007.54
2018-12-04T06:50:05.009Z,1007.57
2018-12-04T06:51:05.052Z,1007.56
2018-12-04T06:52:04.894Z,1007.63
2018-12-04T06:53:05.889Z,1007.59
2018-12-04T06:54:04.834Z,1007.61
2018-12-04T06:55:04.789Z,1007.67
2018-12-04T06:56:04.752Z,1007.69
2018-12-04T06:57:04.770Z,1007.74
2018-12-04T06:58:05.700Z,1007.78
2018-12-04T06:59:04.673Z,1007.79
2018-12-04T07:00:04.657Z,1007.83
2018-12-04T07:01:04.613Z,1007.82
2018-12-04T07:01:51.725Z,1007.79
2018-12-04T07:02:51.566Z,1007.89
2018-12-04T07:03:51.563Z,1007.96
2018-12-04T07:04:51.631Z,1007.99
2018-12-04T07:06:40.089Z,1008.03
2018-12-04T07:07:39.992Z,1008.07
2018-12-04T07:09:33.804Z,1008.16
2018-12-04T07:10:33.705Z,1008.20
2018-12-04T07:11:33.657Z,1008.27
2018-12-04T07:12:33.634Z,1008.23
2018-12-04T07:13:33.681Z,1008.32
2018-12-04T07:14:33.565Z,1008.37
2018-12-04T07:15:41.526Z,1008.37
2018-12-04T07:16:33.602Z,1008.43
2018-12-04T07:17:20.373Z,1008.46
2018-12-04T07:18:20.440Z,1008.53
2018-12-04T07:19:20.300Z,1008.51
2018-12-04T07:20:20.283Z,1008.53
2018-12-04T07:21:20.317Z,1008.55
2018-12-04T07:23:12.356Z,1008.59
2018-12-04T07:24:12.248Z,1008.54
2018-12-04T07:25:12.222Z,1008.61
2018-12-04T07:26:12.205Z,1008.61
2018-12-04T07:27:12.155Z,1008.67
2018-12-04T07:28:12.129Z,1008.67
2018-12-04T07:29:12.115Z,1008.69
2018-12-04T07:30:12.075Z,1008.73
2018-12-04T07:31:12.042Z,1008.70
2018-12-04T07:32:12.017Z,1008.71
2018-12-04T07:33:11.994Z,1008.70
2018-12-04T07:34:12.043Z,1008.74
2018-12-04T07:35:11.949Z,1008.71
2018-12-04T07:36:59.907Z,1008.71
2018-12-04T07:38:00.864Z,1008.77
2018-12-04T07:38:59.751Z,1008.76
2018-12-04T07:39:59.798Z,1008.84
2018-12-04T07:40:59.671Z,1008.84
2018-12-04T07:41:59.634Z,1008.81
2018-12-04T07:42:59.616Z,1008.88
2018-12-04T07:43:59.604Z,1008.92
2018-12-04T07:44:59.547Z,1008.92
2018-12-04T07:45:59.738Z,1008.91
2018-12-04T07:46:59.488Z,1008.96
2018-12-04T07:47:59.497Z,1008.94
2018-12-04T07:48:59.457Z,1009.01
2018-12-04T07:49:59.546Z,1009.00
2018-12-04T07:50:59.372Z,1009.01
2018-12-04T07:51:59.362Z,1009.05
2018-12-04T07:52:53.627Z,1009.08
2018-12-04T07:53:53.311Z,1009.06
2018-12-04T07:54:54.342Z,1009.07
2018-12-04T07:55:53.244Z,1009.12
2018-12-04T07:56:53.311Z,1009.13
2018-12-04T07:57:53.284Z,1009.17
2018-12-04T07:58:54.256Z,1009.22
2018-12-04T07:59:53.129Z,1009.24
2018-12-04T08:00:53.151Z,1009.28
2018-12-04T08:02:38.823Z,1009.27
2018-12-04T08:03:38.823Z,1009.28
2018-12-04T08:04:38.706Z,1009.31
2018-12-04T08:05:38.737Z,1009.28
2018-12-04T08:06:38.635Z,1009.30
2018-12-04T08:07:38.606Z,1009.35
2018-12-04T08:08:38.650Z,1009.39
2018-12-04T08:09:38.540Z,1009.41
2018-12-04T08:10:38.528Z,1009.47
2018-12-04T08:12:29.977Z,1009.50
2018-12-04T08:13:29.972Z,1009.55
2018-12-04T08:14:30.036Z,1009.56
2018-12-04T08:15:29.827Z,1009.56
2018-12-04T08:16:29.948Z,1009.66
2018-12-04T08:17:29.766Z,1009.62
2018-12-04T08:18:29.906Z,1009.74
2018-12-04T08:19:29.715Z,1009.75
2018-12-04T08:20:29.820Z,1009.79
2018-12-04T08:21:29.664Z,1009.77
2018-12-04T08:22:29.633Z,1009.84
2018-12-04T08:23:29.599Z,1009.87
2018-12-04T08:24:29.571Z,1009.85
2018-12-04T08:25:29.535Z,1009.91
2018-12-04T08:26:29.498Z,1009.91
2018-12-04T08:27:29.543Z,1009.97
2018-12-04T08:28:29.435Z,1009.96
2018-12-04T08:30:18.174Z,1009.99
2018-12-04T08:31:18.229Z,1010.05
2018-12-04T08:32:18.085Z,1010.10
2018-12-04T08:33:19.148Z,1010.13
2018-12-04T08:34:18.046Z,1010.15
2018-12-04T08:35:18.150Z,1010.20
2018-12-04T08:36:17.992Z,1010.20
2018-12-04T08:37:18.054Z,1010.19
2018-12-04T08:38:17.919Z,1010.21
2018-12-04T08:40:45.212Z,1010.20
2018-12-04T08:41:46.250Z,1010.19
2018-12-04T08:42:45.095Z,1010.16
2018-12-04T08:43:45.151Z,1010.18
2018-12-04T08:44:45.029Z,1010.20
2018-12-04T08:45:47.082Z,1010.29
2018-12-04T08:46:45.113Z,1010.25
2018-12-04T08:47:51.911Z,1010.27
2018-12-04T08:48:44.922Z,1010.30
2018-12-04T08:49:44.959Z,1010.32
2018-12-04T08:50:44.857Z,1010.37
2018-12-04T08:51:46.920Z,1010.33
2018-12-04T08:54:06.080Z,1010.37
2018-12-04T08:55:05.998Z,1010.38
2018-12-04T08:56:05.986Z,1010.39
2018-12-04T08:57:12.861Z,1010.44
2018-12-04T08:58:05.913Z,1010.46
2018-12-04T08:59:06.011Z,1010.52
2018-12-04T09:00:05.922Z,1010.57
2018-12-04T09:01:07.877Z,1010.59
2018-12-04T09:02:05.801Z,1010.58
2018-12-04T09:03:05.862Z,1010.65
2018-12-04T09:04:05.733Z,1010.67
2018-12-04T09:05:05.706Z,1010.73
2018-12-04T09:06:05.678Z,1010.72
2018-12-04T09:07:06.510Z,1010.75
2018-12-04T09:08:55.982Z,1010.78
2018-12-04T09:09:55.880Z,1010.74
2018-12-04T09:10:55.966Z,1010.80
2018-12-04T09:11:55.809Z,1010.82
2018-12-04T09:12:55.893Z,1010.83
2018-12-04T09:13:55.748Z,1010.84
2018-12-04T09:15:42.114Z,1010.89
2018-12-04T09:16:41.988Z,1010.90
2018-12-04T09:17:41.970Z,1010.95
2018-12-04T09:18:41.939Z,1011.02
2018-12-04T09:19:42.024Z,1010.99
2018-12-04T09:20:41.900Z,1011.01
2018-12-04T09:21:41.886Z,1011.01
2018-12-04T09:23:28.290Z,1011.08
2018-12-04T09:24:30.886Z,1011.07
2018-12-04T09:25:28.207Z,1011.09
2018-12-04T09:26:28.176Z,1011.14
2018-12-04T09:27:28.123Z,1011.13
2018-12-04T09:28:28.419Z,1011.23
2018-12-04T09:29:28.083Z,1011.26
2018-12-04T09:30:28.891Z,1011.29
2018-12-04T09:32:15.399Z,1011.36
2018-12-04T09:33:15.345Z,1011.36
2018-12-04T09:34:17.413Z,1011.39
2018-12-04T09:35:15.291Z,1011.42
2018-12-04T09:36:15.256Z,1011.45
2018-12-04T09:37:15.286Z,1011.52
2018-12-04T09:38:16.701Z,1011.56
2018-12-04T09:39:15.241Z,1011.59
2018-12-04T09:40:15.133Z,1011.60
2018-12-04T09:41:23.792Z,1011.62
2018-12-04T09:42:15.073Z,1011.64
2018-12-04T09:43:16.096Z,1011.66
2018-12-04T09:44:15.038Z,1011.71
2018-12-04T09:45:17.038Z,1011.73
2018-12-04T09:46:14.983Z,1011.76
2018-12-04T09:47:15.012Z,1011.76
2018-12-04T09:49:06.894Z,1011.83
2018-12-04T09:50:06.843Z,1011.81
2018-12-04T09:51:13.900Z,1011.79
2018-12-04T09:52:06.801Z,1011.81
2018-12-04T09:53:15.353Z,1011.87
2018-12-04T09:54:06.731Z,1011.82
2018-12-04T09:55:06.765Z,1011.82
2018-12-04T09:56:06.670Z,1011.85
2018-12-04T09:57:06.690Z,1011.84
2018-12-04T09:58:06.630Z,1011.86
2018-12-04T09:59:06.718Z,1011.92
2018-12-04T10:00:06.554Z,1011.93
2018-12-04T10:01:06.607Z,1011.94
2018-12-04T10:02:06.494Z,1011.88
2018-12-04T10:03:06.569Z,1011.90
2018-12-04T10:04:06.430Z,1011.91
2018-12-04T10:05:06.403Z,1011.95
2018-12-04T10:06:06.375Z,1011.93
2018-12-04T10:07:06.346Z,1012.06
2018-12-04T10:08:06.399Z,1012.00
2018-12-04T10:09:06.325Z,1012.08
2018-12-04T10:10:06.446Z,1012.13
2018-12-04T10:11:06.224Z,1012.10
2018-12-04T10:12:06.319Z,1012.11
2018-12-04T10:13:06.160Z,1012.14
2018-12-04T10:14:06.230Z,1012.13
2018-12-04T10:15:52.461Z,1012.13
2018-12-04T10:16:52.232Z,1012.18
2018-12-04T10:17:52.236Z,1012.16
2018-12-04T10:18:53.308Z,1012.16
2018-12-04T10:19:52.153Z,1012.15
2018-12-04T10:20:52.252Z,1012.12
2018-12-04T10:21:52.092Z,1012.14
2018-12-04T10:22:52.141Z,1012.17
2018-12-04T10:23:52.032Z,1012.19
2018-12-04T10:24:52.013Z,1012.15
2018-12-04T10:25:52.086Z,1012.15
2018-12-04T10:26:51.939Z,1012.15
2018-12-04T10:27:52.081Z,1012.19
2018-12-04T10:28:51.889Z,1012.16
2018-12-04T10:29:51.910Z,1012.19
2018-12-04T10:30:52.912Z,1012.23
2018-12-04T10:31:55.987Z,1012.22
2018-12-04T10:32:51.767Z,1012.22
2018-12-04T10:33:51.737Z,1012.25
2018-12-04T10:34:52.833Z,1012.32
2018-12-04T10:35:51.675Z,1012.29
2018-12-04T10:36:51.981Z,1012.28
2018-12-04T10:37:51.606Z,1012.28
2018-12-04T10:38:51.701Z,1012.33
2018-12-04T10:39:51.552Z,1012.32
2018-12-04T10:40:51.604Z,1012.28
2018-12-04T10:42:59.793Z,1012.36
2018-12-04T10:43:59.817Z,1012.40
2018-12-04T10:44:59.704Z,1012.36
2018-12-04T10:45:59.724Z,1012.42
2018-12-04T10:46:59.631Z,1012.45
2018-12-04T10:48:00.660Z,1012.51
2018-12-04T10:48:59.598Z,1012.51
2018-12-04T10:50:00.679Z,1012.56
2018-12-04T10:51:59.196Z,1012.57
2018-12-04T10:52:59.183Z,1012.61
2018-12-04T10:53:59.104Z,1012.63
2018-12-04T10:55:00.197Z,1012.58
2018-12-04T10:55:59.024Z,1012.65
2018-12-04T10:57:00.173Z,1012.70
2018-12-04T10:57:58.985Z,1012.64
2018-12-04T10:59:05.806Z,1012.63
2018-12-04T10:59:58.905Z,1012.66
2018-12-04T11:01:01.012Z,1012.68
2018-12-04T11:01:58.853Z,1012.68
2018-12-04T11:02:58.970Z,1012.62
2018-12-04T11:04:45.827Z,1012.53
2018-12-04T11:05:45.619Z,1012.56
2018-12-04T11:06:45.574Z,1012.53
2018-12-04T11:07:45.540Z,1012.60
2018-12-04T11:08:45.517Z,1012.60
2018-12-04T11:09:45.480Z,1012.61
2018-12-04T11:10:45.452Z,1012.60
2018-12-04T11:11:45.417Z,1012.59
2018-12-04T11:12:45.485Z,1012.57
2018-12-04T11:13:45.367Z,1012.66
2018-12-04T11:15:36.428Z,1012.63
2018-12-04T11:16:36.475Z,1012.68
2018-12-04T11:17:36.350Z,1012.66
2018-12-04T11:18:37.411Z,1012.68
2018-12-04T11:19:36.295Z,1012.71
2018-12-04T11:20:37.317Z,1012.73
2018-12-04T11:21:36.249Z,1012.73
2018-12-04T11:22:36.204Z,1012.75
2018-12-04T11:24:22.375Z,1012.73
2018-12-04T11:25:22.411Z,1012.76
2018-12-04T11:26:22.287Z,1012.81
2018-12-04T11:27:22.317Z,1012.83
2018-12-04T11:28:22.229Z,1012.84
2018-12-04T11:29:22.230Z,1012.85
2018-12-04T11:30:22.182Z,1012.88
2018-12-04T11:31:22.239Z,1012.85
2018-12-04T11:32:22.109Z,1012.88
2018-12-04T11:33:22.163Z,1012.84
2018-12-04T11:34:22.057Z,1012.87
2018-12-04T11:35:22.069Z,1012.93
2018-12-04T11:36:22.000Z,1013.00
2018-12-04T11:37:22.089Z,1012.96
2018-12-04T11:38:21.943Z,1012.98
2018-12-04T11:39:23.010Z,1013.00
2018-12-04T11:41:08.928Z,1013.06
2018-12-04T11:42:08.831Z,1013.11
2018-12-04T11:43:08.786Z,1013.11
2018-12-04T11:44:15.671Z,1013.08
2018-12-04T11:45:08.754Z,1013.14
2018-12-04T11:46:08.694Z,1013.20
2018-12-04T11:47:08.742Z,1013.13
2018-12-04T11:48:08.642Z,1013.13
2018-12-04T11:49:08.899Z,1013.18
2018-12-04T11:50:08.923Z,1013.10
2018-12-04T11:51:08.754Z,1013.10
2018-12-04T11:52:08.881Z,1013.10
2018-12-04T11:53:09.727Z,1013.14
2018-12-04T11:54:08.959Z,1013.15
2018-12-04T11:55:08.579Z,1013.12
2018-12-04T11:56:08.420Z,1013.14
2018-12-04T11:57:08.496Z,1013.14
2018-12-04T11:58:08.349Z,1013.15
2018-12-04T11:59:08.327Z,1013.13
2018-12-04T12:00:15.170Z,1013.08
2018-12-04T12:01:08.272Z,1013.13
2018-12-04T12:02:10.881Z,1013.14
2018-12-04T12:03:08.222Z,1013.21
2018-12-04T12:04:09.263Z,1013.19
2018-12-04T12:05:08.160Z,1013.17
2018-12-04T12:06:09.279Z,1013.26
2018-12-04T12:07:08.107Z,1013.26
2018-12-04T12:08:08.064Z,1013.25
2018-12-04T12:09:08.154Z,1013.31
2018-12-04T12:10:08.007Z,1013.28
2018-12-04T12:11:08.064Z,1013.35
2018-12-04T12:12:07.964Z,1013.38
2018-12-04T12:13:07.938Z,1013.37
2018-12-04T12:14:07.910Z,1013.39
2018-12-04T12:15:07.891Z,1013.41
2018-12-04T12:16:54.040Z,1013.51
2018-12-04T12:17:54.088Z,1013.57
2018-12-04T12:18:53.965Z,1013.56
2018-12-04T12:19:53.998Z,1013.55
2018-12-04T12:20:53.910Z,1013.60
2018-12-04T12:21:54.013Z,1013.61
2018-12-04T12:22:53.860Z,1013.56
2018-12-04T12:23:53.823Z,1013.60
2018-12-04T12:24:53.791Z,1013.58
2018-12-04T12:25:53.768Z,1013.61
2018-12-04T12:26:53.754Z,1013.64
2018-12-04T12:27:53.728Z,1013.62
2018-12-04T12:28:53.683Z,1013.64
2018-12-04T12:29:54.627Z,1013.63
2018-12-04T12:30:53.632Z,1013.60
2018-12-04T12:31:53.606Z,1013.63
2018-12-04T12:32:53.579Z,1013.67
2018-12-04T12:34:42.192Z,1013.62
2018-12-04T12:35:42.140Z,1013.67
2018-12-04T12:36:42.114Z,1013.66
2018-12-04T12:37:42.159Z,1013.69
2018-12-04T12:38:42.090Z,1013.68
2018-12-04T12:39:42.037Z,1013.61
2018-12-04T12:40:42.015Z,1013.65
2018-12-04T12:42:32.621Z,1013.68
2018-12-04T12:43:32.670Z,1013.68
2018-12-04T12:44:32.561Z,1013.67
2018-12-04T12:45:32.525Z,1013.64
2018-12-04T12:46:32.594Z,1013.67
2018-12-04T12:47:32.497Z,1013.70
2018-12-04T12:48:32.546Z,1013.67
2018-12-04T12:49:32.427Z,1013.71
2018-12-04T12:50:18.433Z,1013.73
2018-12-04T12:51:18.398Z,1013.71
2018-12-04T12:52:18.366Z,1013.74
2018-12-04T12:53:19.420Z,1013.76
2018-12-04T12:54:18.304Z,1013.84
2018-12-04T12:55:18.277Z,1013.81
2018-12-04T12:56:18.252Z,1013.85
2018-12-04T12:57:18.221Z,1013.84
2018-12-04T12:58:18.190Z,1013.83
2018-12-04T12:59:18.164Z,1013.84
2018-12-04T13:00:18.135Z,1013.91
2018-12-04T13:01:18.550Z,1013.91
2018-12-04T13:02:10.227Z,1013.90
2018-12-04T13:02:56.203Z,1013.93
2018-12-04T13:03:56.059Z,1013.94
2018-12-04T13:04:56.022Z,1013.94
2018-12-04T13:05:56.162Z,1013.94
2018-12-04T13:06:55.967Z,1013.88
2018-12-04T13:07:55.937Z,1013.92